Time,TemperatureF,DewpointF,PressureIn,WindDirection,WindDirectionDegrees,WindSpeedMPH,WindSpeedGustMPH,Humidity,HourlyPrecipIn,Conditions,Clouds,dailyrainin,SoftwareType,DateUTC
2013-01-10 02:00:00,33.0,12.0,-100.00,SSW,208,13.0,34.0,41,-99.99,,,-99.99,,2013-01-10 09:00:00,
2013-01-10 02:32:00,33.0,12.0,-100.00,SSW,208,13.0,34.0,41,-99.99,,,-99.99,,2013-01-10 09:32:00,
2013-01-10 02:43:00,33.0,12.0,-100.00,SSW,208,13.0,34.0,41,-99.99,,,-99.99,,2013-01-10 09:43:00,
2013-01-10 02:52:00,33.0,12.0,-100.00,SSW,208,13.0,34.0,41,-99.99,,,-99.99,,2013-01-10 09:52:00,
2013-01-10 04:00:00,33.0,14.0,-100.00,SSW,201,15.0,40.0,46,-99.99,,,-99.99,,2013-01-10 11:00:00,
2013-01-10 04:33:00,33.0,14.0,-100.00,SSW,201,15.0,40.0,46,-99.99,,,-99.99,,2013-01-10 11:33:00,
2013-01-10 04:43:00,33.0,14.0,-100.00,SSW,201,15.0,40.0,46,-99.99,,,-99.99,,2013-01-10 11:43:00,
2013-01-10 04:53:00,33.0,14.0,-100.00,SSW,201,15.0,40.0,46,-99.99,,,-99.99,,2013-01-10 11:53:00,
2013-01-10 06:00:00,31.0,16.0,-100.00,SSW,201,14.0,38.0,52,-99.99,,,-99.99,,2013-01-10 13:00:00,
2013-01-10 06:33:00,31.0,16.0,-100.00,SSW,201,14.0,38.0,52,-99.99,,,-99.99,,2013-01-10 13:33:00,
2013-01-10 06:42:00,31.0,16.0,-100.00,SSW,201,14.0,38.0,52,-99.99,,,-99.99,,2013-01-10 13:42:00,
2013-01-10 06:53:00,31.0,16.0,-100.00,SSW,201,14.0,38.0,52,-99.99,,,-99.99,,2013-01-10 13:53:00,
2013-01-10 08:00:00,28.0,16.0,-100.00,South,176,21.0,42.0,60,-99.99,,,-99.99,,2013-01-10 15:00:00,
2013-01-10 08:33:00,28.0,16.0,-100.00,South,176,21.0,42.0,60,-99.99,,,-99.99,,2013-01-10 15:33:00,
2013-01-10 08:43:00,28.0,16.0,-100.00,South,176,21.0,42.0,60,-99.99,,,-99.99,,2013-01-10 15:43:00,
2013-01-10 08:53:00,28.0,16.0,-100.00,South,176,21.0,42.0,60,-99.99,,,-99.99,,2013-01-10 15:53:00,
2013-01-10 10:00:00,28.0,17.0,-100.00,South,182,15.0,31.0,63,-99.99,,,-99.99,,2013-01-10 17:00:00,
2013-01-10 10:33:00,28.0,17.0,-100.00,South,182,15.0,31.0,63,-99.99,,,-99.99,,2013-01-10 17:33:00,
2013-01-10 10:43:00,28.0,17.0,-100.00,South,182,15.0,31.0,63,-99.99,,,-99.99,,2013-01-10 17:43:00,
2013-01-10 10:53:00,28.0,17.0,-100.00,South,182,15.0,31.0,63,-99.99,,,-99.99,,2013-01-10 17:53:00,
2013-01-10 14:00:00,22.0,21.0,-100.00,SSW,204,9.0,26.0,97,-99.99,,,-99.99,,2013-01-10 21:00:00,
2013-01-10 14:33:00,22.0,21.0,-100.00,SSW,204,9.0,26.0,97,-99.99,,,-99.99,,2013-01-10 21:33:00,
2013-01-10 14:43:00,22.0,21.0,-100.00,SSW,204,9.0,26.0,97,-99.99,,,-99.99,,2013-01-10 21:43:00,
2013-01-10 14:53:00,22.0,21.0,-100.00,SSW,204,9.0,26.0,97,-99.99,,,-99.99,,2013-01-10 21:53:00,
2013-01-10 16:00:00,20.0,20.0,-100.00,SSW,210,7.0,23.0,98,-99.99,,,-99.99,,2013-01-10 23:00:00,
2013-01-10 16:33:00,20.0,20.0,-100.00,SSW,210,7.0,23.0,98,-99.99,,,-99.99,,2013-01-10 23:33:00,
2013-01-10 16:43:00,20.0,20.0,-100.00,SSW,210,7.0,23.0,98,-99.99,,,-99.99,,2013-01-10 23:43:00,
2013-01-10 16:53:00,20.0,20.0,-100.00,SSW,210,7.0,23.0,98,-99.99,,,-99.99,,2013-01-10 23:53:00,
2013-01-10 18:00:00,14.0,14.0,-100.00,West,269,5.0,17.0,96,-99.99,,,-99.99,,2013-01-11 01:00:00,
2013-01-10 18:34:00,14.0,14.0,-100.00,West,269,5.0,17.0,96,-99.99,,,-99.99,,2013-01-11 01:34:00,
2013-01-10 18:43:00,14.0,14.0,-100.00,West,269,5.0,17.0,96,-99.99,,,-99.99,,2013-01-11 01:43:00,
2013-01-10 18:53:00,14.0,14.0,-100.00,West,269,5.0,17.0,96,-99.99,,,-99.99,,2013-01-11 01:53:00,
2013-01-10 20:00:00,10.0,8.0,-100.00,NW,304,5.0,17.0,94,-99.99,,,-99.99,,2013-01-11 03:00:00,
2013-01-10 20:33:00,10.0,8.0,-100.00,NW,304,5.0,17.0,94,-99.99,,,-99.99,,2013-01-11 03:33:00,
2013-01-10 20:43:00,10.0,8.0,-100.00,NW,304,5.0,17.0,94,-99.99,,,-99.99,,2013-01-11 03:43:00,
2013-01-10 20:53:00,10.0,8.0,-100.00,NW,304,5.0,17.0,94,-99.99,,,-99.99,,2013-01-11 03:53:00,
2013-01-10 22:00:00,7.0,5.0,-100.00,West,274,11.0,22.0,91,-99.99,,,-99.99,,2013-01-11 05:00:00,
2013-01-10 22:33:00,7.0,5.0,-100.00,West,274,11.0,22.0,91,-99.99,,,-99.99,,2013-01-11 05:33:00,
2013-01-10 22:43:00,7.0,5.0,-100.00,West,274,11.0,22.0,91,-99.99,,,-99.99,,2013-01-11 05:43:00,
2013-01-10 22:53:00,7.0,5.0,-100.00,West,274,11.0,22.0,91,-99.99,,,-99.99,,2013-01-11 05:53:00,